Terminal Aerodrome Forecast
Issued by NWS

Home | Current Version | Previous Version | Text Only | Print | Product List | Glossary On
Versions: 1 2 3 4 5 6 7 8 9 10 11 12 13
367
FTUS45 KRIW 141720
TAFLND
TAF
KLND 141720Z 1418/1518 VRB06KT P6SM SCT080 BKN140 WS020/29035KT
     FM142000 29011G18KT P6SM SCT070 BKN120 WS020/29038KT
     FM150200 25006KT P6SM SCT060 BKN090 WS020/29038KT=

USA.gov is the U.S. government's official web portal to all federal, state and local government web resources and services.